Time;durP1;ratioP1;P1;durP2;ratioP2;P2;SDS_P1;SDS_P2;PMS_P1;PMS_P2;Temp;Humidity;BMP_temperature;BMP_pressure;BME280_temperature;BME280_humidity;BME280_pressure;Samples;Min_cycle;Max_cycle;Signal;HPM_P1;HPM_P2
2022/08/25 00:00:46;;;;;;;29.27;26.13;;;20.30;80.00;;;;;;4900745;29;20032;-68
2022/08/25 00:03:12;;;;;;;27.70;24.80;;;20.30;79.90;;;;;;4929573;29;20334;-68
2022/08/25 00:05:38;;;;;;;31.30;26.00;;;20.30;80.00;;;;;;4928616;29;20118;-68
2022/08/25 00:08:05;;;;;;;28.80;25.00;;;20.30;80.10;;;;;;4907600;29;20044;-68
2022/08/25 00:10:35;;;;;;;27.57;24.60;;;20.30;80.00;;;;;;4920694;29;20386;-68
2022/08/25 00:13:03;;;;;;;26.97;23.93;;;20.30;80.10;;;;;;4907944;29;20048;-68
2022/08/25 00:15:32;;;;;;;27.67;24.70;;;20.30;80.10;;;;;;4912135;29;20062;-68
2022/08/25 00:17:58;;;;;;;24.80;22.07;;;20.30;80.10;;;;;;4899186;29;20050;-68
2022/08/25 00:20:26;;;;;;;27.37;22.10;;;20.40;80.10;;;;;;4916616;29;20066;-68
2022/08/25 00:22:51;;;;;;;29.27;23.63;;;20.40;80.00;;;;;;4915261;29;20049;-68
2022/08/25 00:25:18;;;;;;;27.07;24.13;;;20.30;79.90;;;;;;4924712;29;20039;-68
2022/08/25 00:27:46;;;;;;;29.53;23.77;;;20.40;79.70;;;;;;4909955;29;20044;-68
2022/08/25 00:30:13;;;;;;;26.73;23.07;;;20.30;79.80;;;;;;4914713;29;20138;-68
2022/08/25 00:32:39;;;;;;;27.47;23.57;;;20.30;79.80;;;;;;4918801;29;20052;-68
2022/08/25 00:35:05;;;;;;;25.87;23.17;;;20.30;79.70;;;;;;4923238;29;20436;-68
2022/08/25 00:37:31;;;;;;;25.47;22.70;;;20.30;79.60;;;;;;4916916;29;20513;-68
2022/08/25 00:39:57;;;;;;;25.30;22.40;;;20.30;79.80;;;;;;4918676;29;20075;-68
2022/08/25 00:42:24;;;;;;;28.93;24.13;;;20.30;79.70;;;;;;4921386;29;20048;-68
2022/08/25 00:44:50;;;;;;;29.60;24.73;;;20.20;79.70;;;;;;4915270;29;20055;-68
2022/08/25 00:47:16;;;;;;;27.03;23.20;;;20.20;79.60;;;;;;4919065;29;20579;-68
2022/08/25 00:49:46;;;;;;;28.17;23.63;;;20.20;79.50;;;;;;4932348;29;20482;-68
2022/08/25 00:52:20;;;;;;;30.07;25.63;;;20.20;79.50;;;;;;4930796;29;20099;-68
2022/08/25 00:54:53;;;;;;;29.50;25.17;;;20.20;79.50;;;;;;4931895;29;20067;-68
2022/08/25 00:57:27;;;;;;;28.33;24.20;;;20.20;79.60;;;;;;4903651;29;20064;-68
2022/08/25 00:59:53;;;;;;;29.80;25.43;;;20.10;79.50;;;;;;4920845;29;20546;-68
2022/08/25 01:02:19;;;;;;;31.60;25.03;;;20.10;79.50;;;;;;4935353;29;20134;-68
2022/08/25 01:04:46;;;;;;;29.30;26.10;;;20.10;79.50;;;;;;4921413;29;20048;-68
2022/08/25 01:07:13;;;;;;;32.03;25.33;;;20.10;79.50;;;;;;4937380;29;20087;-68
2022/08/25 01:09:39;;;;;;;28.60;25.43;;;20.00;79.60;;;;;;4908391;29;20051;-68
2022/08/25 01:12:05;;;;;;;26.90;23.53;;;20.00;79.70;;;;;;4930684;29;20383;-68
2022/08/25 01:14:32;;;;;;;29.47;24.93;;;20.00;79.60;;;;;;4936860;29;20114;-68
2022/08/25 01:16:59;;;;;;;29.67;25.27;;;19.90;79.70;;;;;;4927840;29;20127;-68
2022/08/25 01:19:27;;;;;;;30.57;24.50;;;19.90;79.90;;;;;;4926571;29;20047;-68
2022/08/25 01:21:54;;;;;;;30.53;23.40;;;19.90;79.80;;;;;;4927130;29;20043;-68
2022/08/25 01:25:14;;;;;;;28.00;22.50;;;19.90;79.90;;;;;;4929261;29;20048;-68
2022/08/25 01:27:40;;;;;;;26.07;21.20;;;19.90;79.50;;;;;;4864213;29;20569;-68
2022/08/25 01:30:06;;;;;;;23.90;20.93;;;19.80;79.30;;;;;;4910123;29;20052;-68
2022/08/25 01:32:33;;;;;;;26.83;21.93;;;19.80;79.20;;;;;;4921210;29;20111;-68
2022/08/25 01:34:59;;;;;;;27.00;20.23;;;19.80;79.00;;;;;;4915501;29;20051;-68
2022/08/25 01:37:24;;;;;;;23.07;20.00;;;19.80;78.70;;;;;;4914290;29;20040;-68
2022/08/25 01:39:50;;;;;;;26.30;19.17;;;19.80;78.70;;;;;;4904079;29;20623;-68
2022/08/25 01:42:26;;;;;;;20.83;18.63;;;19.80;78.60;;;;;;4937915;29;20044;-68
2022/08/25 01:44:53;;;;;;;22.47;18.43;;;19.80;78.60;;;;;;4921325;29;20043;-68
2022/08/25 01:47:19;;;;;;;21.30;18.40;;;19.70;78.50;;;;;;4930156;29;20079;-68
2022/08/25 01:49:45;;;;;;;25.20;18.10;;;19.70;78.50;;;;;;4908969;29;20082;-68
2022/08/25 01:52:20;;;;;;;21.27;17.13;;;19.70;78.50;;;;;;4899680;29;20178;-68
2022/08/25 01:54:45;;;;;;;22.60;17.73;;;19.60;78.50;;;;;;4933384;29;20040;-68
2022/08/25 01:57:11;;;;;;;18.30;15.80;;;19.60;78.40;;;;;;4918411;29;20171;-68
2022/08/25 01:59:37;;;;;;;18.73;15.90;;;19.60;78.30;;;;;;4898914;29;20048;-68
2022/08/25 02:02:04;;;;;;;19.00;14.63;;;19.50;78.30;;;;;;4903169;29;20047;-68
2022/08/25 02:04:31;;;;;;;17.93;14.70;;;19.50;78.20;;;;;;4910027;29;20364;-68
2022/08/25 02:06:58;;;;;;;17.63;13.10;;;19.40;78.20;;;;;;4913067;29;20047;-68
2022/08/25 02:09:24;;;;;;;15.27;13.60;;;19.40;78.00;;;;;;4912179;29;20134;-68
2022/08/25 02:11:50;;;;;;;18.53;13.33;;;19.40;77.80;;;;;;4912808;29;20389;-68
2022/08/25 02:14:17;;;;;;;17.00;13.20;;;19.40;77.60;;;;;;4917700;29;20044;-68
2022/08/25 02:16:47;;;;;;;16.27;11.80;;;19.40;77.50;;;;;;4906606;29;20347;-68
2022/08/25 02:19:14;;;;;;;12.57;11.27;;;19.40;77.30;;;;;;4929405;29;20488;-68
2022/08/25 02:21:40;;;;;;;12.40;11.03;;;19.30;77.10;;;;;;4925402;29;20334;-68
2022/08/25 02:24:06;;;;;;;15.20;10.90;;;19.30;77.00;;;;;;4919211;29;20292;-68
2022/08/25 02:26:32;;;;;;;12.50;10.50;;;19.30;76.80;;;;;;4929998;29;20059;-68
2022/08/25 02:28:58;;;;;;;14.07;9.93;;;19.30;76.70;;;;;;4907878;29;20296;-68
2022/08/25 02:31:25;;;;;;;13.43;10.33;;;19.20;76.70;;;;;;4930332;29;20047;-68
2022/08/25 02:33:51;;;;;;;11.43;9.87;;;19.20;76.50;;;;;;4938300;29;20283;-68
2022/08/25 02:36:18;;;;;;;10.90;9.30;;;19.20;76.40;;;;;;4935670;29;20050;-68
2022/08/25 02:38:44;;;;;;;10.33;9.23;;;19.10;76.30;;;;;;4914960;29;20043;-68
2022/08/25 02:41:18;;;;;;;10.40;8.63;;;19.10;76.20;;;;;;4915371;29;20359;-68
2022/08/25 02:43:45;;;;;;;10.50;9.32;;;19.10;76.10;;;;;;4917484;29;20470;-68
2022/08/25 02:46:11;;;;;;;10.57;9.27;;;19.10;76.00;;;;;;4925690;29;20046;-68
2022/08/25 02:48:38;;;;;;;10.43;8.93;;;19.00;76.00;;;;;;4934945;28;20851;-68
2022/08/25 02:51:05;;;;;;;11.20;8.27;;;19.00;75.90;;;;;;4918284;29;20765;-68
2022/08/25 02:53:32;;;;;;;11.73;9.07;;;19.00;75.80;;;;;;4927790;29;20524;-68
2022/08/25 02:55:58;;;;;;;12.50;9.03;;;18.90;75.80;;;;;;4913813;29;20307;-68
2022/08/25 02:58:24;;;;;;;12.40;8.60;;;18.90;75.90;;;;;;4931935;29;20275;-68
2022/08/25 03:00:51;;;;;;;13.03;8.83;;;18.80;75.80;;;;;;4922976;29;20347;-68
2022/08/25 03:03:19;;;;;;;11.77;8.40;;;18.80;75.80;;;;;;4922497;29;20288;-68
2022/08/25 03:05:45;;;;;;;9.87;7.80;;;18.80;75.70;;;;;;4931147;29;20304;-68
2022/08/25 03:08:12;;;;;;;10.77;8.03;;;18.80;75.80;;;;;;4932716;29;20378;-68
2022/08/25 03:10:37;;;;;;;10.53;7.47;;;18.70;75.90;;;;;;4929259;29;20295;-67
2022/08/25 03:13:03;;;;;;;8.10;7.10;;;18.70;75.80;;;;;;4913339;29;20398;-68
2022/08/25 03:15:29;;;;;;;7.90;6.97;;;18.70;75.70;;;;;;4918383;29;20099;-68
2022/08/25 03:17:55;;;;;;;9.37;7.30;;;18.60;75.80;;;;;;4926357;29;20063;-68
2022/08/25 03:20:23;;;;;;;9.90;7.60;;;18.60;75.80;;;;;;4935884;28;20547;-68
2022/08/25 03:22:49;;;;;;;10.27;7.50;;;18.60;75.70;;;;;;4926599;29;20043;-68
2022/08/25 03:28:00;;;;;;;10.18;6.70;;;18.50;75.60;;;;;;4930370;29;20312;-67
2022/08/25 03:30:28;;;;;;;10.13;7.03;;;18.50;75.60;;;;;;4912828;29;20048;-67
2022/08/25 03:32:54;;;;;;;10.10;6.30;;;18.50;75.60;;;;;;4898160;29;20072;-67
2022/08/25 03:35:19;;;;;;;7.80;6.83;;;18.50;75.40;;;;;;4914030;29;20704;-67
2022/08/25 03:37:45;;;;;;;7.30;6.17;;;18.50;75.40;;;;;;4932926;29;20067;-67
2022/08/25 03:40:13;;;;;;;6.97;5.97;;;18.40;75.30;;;;;;4884630;29;20142;-67
2022/08/25 03:42:40;;;;;;;10.07;6.57;;;18.50;75.10;;;;;;4898650;29;20292;-67
2022/08/25 03:45:07;;;;;;;8.87;6.40;;;18.50;74.90;;;;;;4927672;29;20350;-68
2022/08/25 03:47:33;;;;;;;6.60;5.40;;;18.40;74.90;;;;;;4926910;29;20322;-68
2022/08/25 03:49:59;;;;;;;7.37;5.70;;;18.40;74.70;;;;;;4923301;29;20326;-67
2022/08/25 03:52:25;;;;;;;8.00;5.97;;;18.40;74.60;;;;;;4917118;29;21161;-67
2022/08/25 03:54:51;;;;;;;6.10;5.50;;;18.40;74.50;;;;;;4899668;29;20063;-67
2022/08/25 03:57:19;;;;;;;6.83;5.83;;;18.40;74.20;;;;;;4916292;29;20765;-67
2022/08/25 03:59:45;;;;;;;7.30;5.57;;;18.40;74.20;;;;;;4916052;29;20819;-67
2022/08/25 04:02:10;;;;;;;7.30;5.50;;;18.50;74.10;;;;;;4905759;29;20292;-67
2022/08/25 04:04:36;;;;;;;6.43;5.03;;;18.40;74.00;;;;;;4889669;29;20040;-67
2022/08/25 04:07:02;;;;;;;8.13;5.30;;;18.50;73.90;;;;;;4929402;29;20416;-67
2022/08/25 04:09:28;;;;;;;7.40;5.27;;;18.40;73.90;;;;;;4925507;29;20062;-67
2022/08/25 04:11:54;;;;;;;6.80;5.83;;;18.40;73.80;;;;;;4897792;29;20039;-67
2022/08/25 04:14:20;;;;;;;6.53;5.03;;;18.50;73.70;;;;;;4916510;29;20063;-67
2022/08/25 04:16:46;;;;;;;6.20;4.97;;;18.50;73.80;;;;;;4897555;29;20093;-67
2022/08/25 04:19:12;;;;;;;8.80;5.30;;;18.50;73.70;;;;;;4902406;29;20893;-67
2022/08/25 04:21:39;;;;;;;6.87;5.70;;;18.50;73.50;;;;;;4892387;29;20048;-67
2022/08/25 04:24:07;;;;;;;8.37;5.10;;;18.50;73.30;;;;;;4914622;29;20330;-67
2022/08/25 04:26:36;;;;;;;6.17;4.83;;;18.50;73.20;;;;;;4912825;29;20359;-67
2022/08/25 04:29:04;;;;;;;6.80;4.90;;;18.50;73.30;;;;;;4907637;29;20336;-67
2022/08/25 04:31:32;;;;;;;5.97;5.33;;;18.50;73.10;;;;;;4913184;29;20776;-67
2022/08/25 04:34:00;;;;;;;7.17;4.67;;;18.50;73.00;;;;;;4923174;29;20919;-67
2022/08/25 04:36:25;;;;;;;8.53;5.40;;;18.50;72.90;;;;;;4922978;29;20659;-67
2022/08/25 04:38:51;;;;;;;8.07;4.77;;;18.50;72.90;;;;;;4914233;29;20283;-68
2022/08/25 04:41:20;;;;;;;6.07;4.90;;;18.50;72.80;;;;;;4932341;29;20046;-67
2022/08/25 04:43:46;;;;;;;8.00;5.37;;;18.50;72.60;;;;;;4921056;29;20407;-67
2022/08/25 04:46:21;;;;;;;5.23;4.40;;;18.50;72.60;;;;;;4911664;29;20288;-67
2022/08/25 04:48:51;;;;;;;;;;;18.60;72.30;;;;;;4917853;29;20036;-67
2022/08/25 04:51:22;;;;;;;7.43;4.90;;;18.50;72.20;;;;;;4934064;29;19919;-68
2022/08/25 04:53:48;;;;;;;6.67;4.63;;;18.50;72.50;;;;;;4933417;29;20639;-68
2022/08/25 04:56:19;;;;;;;6.60;4.47;;;18.50;72.40;;;;;;4927799;29;20806;-67
2022/08/25 04:58:46;;;;;;;8.23;4.80;;;18.50;72.40;;;;;;4918902;29;20310;-67
2022/08/25 05:01:15;;;;;;;6.23;4.67;;;18.50;72.40;;;;;;4916925;29;20287;-67
2022/08/25 05:03:42;;;;;;;4.93;4.27;;;18.50;72.30;;;;;;4923278;29;20287;-67
2022/08/25 05:06:08;;;;;;;8.83;4.77;;;18.50;72.30;;;;;;4916336;29;20272;-67
2022/08/25 05:08:35;;;;;;;6.37;5.17;;;18.50;72.20;;;;;;4912253;29;20284;-67
2022/08/25 05:11:05;;;;;;;10.93;4.83;;;18.50;72.10;;;;;;4909554;29;20283;-67
2022/08/25 05:13:31;;;;;;;6.10;4.80;;;18.50;71.90;;;;;;4915131;29;20288;-67
2022/08/25 05:15:58;;;;;;;7.27;4.57;;;18.50;71.80;;;;;;4915643;29;20306;-67
2022/08/25 05:18:26;;;;;;;5.03;4.23;;;18.60;71.70;;;;;;4932091;29;20299;-67
2022/08/25 05:20:53;;;;;;;4.60;3.83;;;18.60;71.60;;;;;;4932666;29;20374;-67
2022/08/25 05:23:21;;;;;;;6.77;4.60;;;18.60;71.50;;;;;;4928425;29;20335;-67
2022/08/25 05:25:47;;;;;;;5.50;3.93;;;18.60;71.20;;;;;;4933243;29;20302;-68
2022/08/25 05:28:13;;;;;;;7.20;4.10;;;18.70;71.20;;;;;;4929272;29;20729;-68
2022/08/25 05:30:41;;;;;;;5.93;4.10;;;18.70;71.20;;;;;;4912298;29;20828;-68
2022/08/25 05:33:08;;;;;;;6.40;3.83;;;18.70;71.10;;;;;;4928202;29;20358;-67
2022/08/25 05:35:35;;;;;;;6.90;4.17;;;18.80;70.80;;;;;;4928584;29;20379;-67
2022/08/25 05:38:02;;;;;;;6.33;4.20;;;18.90;70.40;;;;;;4932290;29;20705;-67
2022/08/25 05:40:29;;;;;;;6.97;4.37;;;18.90;70.20;;;;;;4932440;29;20859;-68
2022/08/25 05:42:54;;;;;;;5.13;3.87;;;19.00;70.10;;;;;;4930848;29;20302;-68
2022/08/25 05:45:20;;;;;;;5.53;4.10;;;19.00;70.10;;;;;;4901425;29;20480;-68
2022/08/25 05:47:46;;;;;;;8.80;4.63;;;19.00;70.10;;;;;;4901040;29;20040;-68
2022/08/25 05:50:12;;;;;;;6.70;4.27;;;19.10;70.10;;;;;;4919213;29;20044;-68
2022/08/25 05:52:38;;;;;;;6.97;3.90;;;19.10;69.90;;;;;;4902420;29;20052;-68
2022/08/25 05:55:05;;;;;;;8.00;4.53;;;19.10;69.90;;;;;;4898293;29;20067;-68
2022/08/25 05:57:33;;;;;;;7.90;4.73;;;19.20;69.90;;;;;;4919619;29;20306;-68
2022/08/25 05:59:59;;;;;;;6.77;4.13;;;19.30;69.70;;;;;;4914040;29;20292;-68
2022/08/25 06:02:40;;;;;;;5.70;4.70;;;19.30;69.80;;;;;;4925678;29;20306;-68
2022/08/25 06:05:10;;;;;;;5.47;3.90;;;19.40;69.80;;;;;;4924978;29;20052;-68
2022/08/25 06:07:36;;;;;;;5.57;4.47;;;19.40;69.80;;;;;;4925295;29;20048;-68
2022/08/25 06:10:05;;;;;;;7.37;4.60;;;19.50;69.80;;;;;;4912867;29;20509;-68
2022/08/25 06:12:34;;;;;;;6.87;4.57;;;19.60;69.70;;;;;;4932759;29;20051;-68
2022/08/25 06:15:01;;;;;;;5.73;4.03;;;19.60;69.60;;;;;;4915793;29;20045;-68
2022/08/25 06:17:26;;;;;;;6.40;4.23;;;19.70;69.50;;;;;;4917083;29;20043;-68
2022/08/25 06:19:53;;;;;;;6.60;3.93;;;19.80;69.50;;;;;;4930636;29;20040;-68
2022/08/25 06:22:20;;;;;;;6.13;4.03;;;19.90;69.30;;;;;;4916699;29;20102;-68
2022/08/25 06:24:46;;;;;;;6.27;4.17;;;20.00;69.40;;;;;;4915494;29;20523;-68
2022/08/25 06:27:12;;;;;;;7.47;4.10;;;20.10;69.30;;;;;;4936874;29;20520;-68
2022/08/25 06:29:37;;;;;;;6.37;5.00;;;20.20;69.30;;;;;;4930776;29;20035;-68
2022/08/25 06:32:04;;;;;;;8.13;4.20;;;20.30;69.40;;;;;;4931574;29;20126;-68
2022/08/25 06:34:29;;;;;;;5.70;4.53;;;20.40;69.00;;;;;;4911330;29;20135;-68
2022/08/25 06:36:55;;;;;;;7.03;4.40;;;20.40;68.80;;;;;;4874511;29;20134;-68
2022/08/25 06:39:21;;;;;;;5.80;3.50;;;20.60;68.60;;;;;;4933310;29;20048;-68
2022/08/25 06:41:55;;;;;;;9.13;4.27;;;20.70;68.60;;;;;;4932099;29;20043;-68
2022/08/25 06:44:22;;;;;;;6.93;4.03;;;20.80;68.60;;;;;;4930328;29;20055;-68
2022/08/25 06:46:48;;;;;;;5.67;4.17;;;20.90;68.50;;;;;;4932094;29;20044;-68
2022/08/25 06:49:14;;;;;;;8.13;4.43;;;21.00;68.10;;;;;;4919028;29;20039;-68
2022/08/25 06:51:40;;;;;;;5.00;3.93;;;21.10;68.00;;;;;;4898742;29;20356;-68
2022/08/25 06:54:08;;;;;;;6.13;3.83;;;21.20;67.80;;;;;;4912184;29;20039;-68
2022/08/25 06:56:35;;;;;;;7.03;3.97;;;21.40;67.50;;;;;;4913916;29;20052;-68
2022/08/25 06:59:03;;;;;;;7.70;3.90;;;21.50;67.00;;;;;;4897331;29;20040;-68
2022/08/25 07:01:28;;;;;;;5.40;3.47;;;21.60;66.90;;;;;;4917624;29;20082;-68
2022/08/25 07:03:58;;;;;;;5.37;3.70;;;21.70;66.90;;;;;;4922582;29;20071;-68
2022/08/25 07:06:30;;;;;;;5.77;3.73;;;21.90;66.60;;;;;;4929065;29;20052;-68
2022/08/25 07:08:56;;;;;;;5.67;3.80;;;22.00;66.40;;;;;;4929849;29;20052;-68
2022/08/25 07:11:22;;;;;;;9.10;4.00;;;22.10;65.70;;;;;;4929775;29;20054;-68
2022/08/25 07:13:49;;;;;;;4.77;3.77;;;22.20;65.40;;;;;;4898234;29;20074;-68
2022/08/25 07:16:16;;;;;;;7.10;4.17;;;22.30;65.30;;;;;;4912614;29;20138;-68
2022/08/25 07:18:43;;;;;;;7.83;4.00;;;22.40;65.30;;;;;;4898774;29;20039;-68
2022/08/25 07:21:09;;;;;;;7.13;4.50;;;22.50;65.10;;;;;;4911253;29;20040;-68
2022/08/25 07:23:36;;;;;;;6.80;3.90;;;22.60;64.50;;;;;;4927229;29;20044;-68
2022/08/25 07:26:17;;;;;;;5.77;3.27;;;22.70;64.50;;;;;;4913690;29;20091;-68
2022/08/25 07:28:43;;;;;;;4.53;3.40;;;22.90;64.20;;;;;;4931608;29;20040;-68
2022/08/25 07:31:09;;;;;;;5.47;3.80;;;23.00;63.90;;;;;;4927210;29;20592;-68
2022/08/25 07:33:35;;;;;;;5.20;3.33;;;23.10;62.90;;;;;;4945252;28;20043;-68
2022/08/25 07:36:02;;;;;;;6.63;3.53;;;23.20;62.60;;;;;;4911734;29;20040;-68
2022/08/25 07:38:28;;;;;;;6.23;3.13;;;23.30;62.60;;;;;;4912521;29;20047;-68
2022/08/25 07:41:03;;;;;;;4.73;3.07;;;23.40;61.90;;;;;;4926063;29;20476;-68
2022/08/25 07:43:29;;;;;;;5.67;3.03;;;23.50;61.80;;;;;;4940639;28;20667;-68
2022/08/25 07:45:55;;;;;;;6.77;2.80;;;23.60;61.00;;;;;;4914213;29;20085;-68
2022/08/25 07:48:20;;;;;;;5.73;3.10;;;23.70;61.10;;;;;;4898013;29;20505;-68
2022/08/25 07:50:48;;;;;;;3.63;2.73;;;23.80;60.70;;;;;;4929459;29;20412;-68
2022/08/25 07:53:15;;;;;;;4.03;2.60;;;23.90;59.90;;;;;;4929943;29;20147;-68
2022/08/25 07:55:41;;;;;;;5.03;3.40;;;24.00;59.30;;;;;;4929458;29;20048;-68
2022/08/25 07:58:08;;;;;;;3.97;3.00;;;24.10;59.20;;;;;;4908588;29;20059;-68
2022/08/25 08:00:36;;;;;;;5.53;2.80;;;24.20;59.10;;;;;;4905359;29;20134;-68
2022/08/25 08:03:06;;;;;;;4.77;2.80;;;24.40;59.00;;;;;;4929057;29;20398;-68
2022/08/25 08:05:33;;;;;;;4.53;2.50;;;24.50;58.10;;;;;;4930833;29;20083;-68
2022/08/25 08:07:59;;;;;;;4.83;2.70;;;24.60;58.60;;;;;;4943888;28;20039;-68
2022/08/25 08:10:25;;;;;;;3.63;2.43;;;24.70;58.40;;;;;;4913052;29;20054;-68
2022/08/25 08:12:52;;;;;;;5.87;2.87;;;24.80;57.70;;;;;;4909397;29;20040;-68
2022/08/25 08:15:18;;;;;;;11.30;3.10;;;24.90;57.60;;;;;;4909893;29;20054;-68
2022/08/25 08:17:44;;;;;;;4.40;2.80;;;25.00;57.40;;;;;;4897998;29;20369;-68
2022/08/25 08:20:11;;;;;;;7.63;2.70;;;25.20;57.10;;;;;;4893718;29;20390;-69
2022/08/25 08:22:39;;;;;;;4.93;2.80;;;25.20;57.80;;;;;;4919326;29;20083;-69
2022/08/25 08:25:07;;;;;;;6.30;2.70;;;25.40;58.40;;;;;;4914276;29;20103;-68
2022/08/25 08:27:33;;;;;;;4.17;2.80;;;25.60;57.80;;;;;;4930473;29;20047;-69
2022/08/25 08:30:00;;;;;;;4.27;2.60;;;25.70;57.00;;;;;;4915743;29;20090;-69
2022/08/25 08:32:26;;;;;;;6.07;2.70;;;25.80;56.70;;;;;;4929825;29;20110;-69
2022/08/25 08:34:52;;;;;;;3.47;2.53;;;25.90;56.40;;;;;;4928017;29;20043;-69
2022/08/25 08:37:18;;;;;;;4.40;2.80;;;26.00;56.00;;;;;;4896927;29;20479;-68
2022/08/25 08:39:44;;;;;;;4.03;2.40;;;26.10;55.90;;;;;;4926232;29;20078;-68
2022/08/25 08:42:30;;;;;;;5.33;2.90;;;26.30;55.90;;;;;;4912059;29;20081;-68
2022/08/25 08:45:23;;;;;;;5.13;2.73;;;26.40;55.10;;;;;;4924051;29;20131;-68
2022/08/25 08:48:08;;;;;;;4.33;2.50;;;26.50;55.40;;;;;;4921784;29;20043;-68
2022/08/25 08:51:23;;;;;;;8.40;2.87;;;26.70;54.80;;;;;;4928793;29;20555;-68
2022/08/25 08:54:08;;;;;;;5.57;2.37;;;26.80;54.00;;;;;;4883358;29;20693;-69
2022/08/25 08:56:40;;;;;;;4.05;2.25;;;27.00;54.70;;;;;;4908745;29;20078;-69
2022/08/25 08:59:10;;;;;;;3.67;2.37;;;27.10;53.60;;;;;;4918050;29;20067;-69
2022/08/25 09:01:46;;;;;;;5.33;2.40;;;27.20;53.40;;;;;;4924347;29;20035;-69
2022/08/25 09:04:33;;;;;;;2.57;2.00;;;27.30;53.70;;;;;;4923093;29;20047;-69
2022/08/25 09:07:03;;;;;;;4.37;2.23;;;27.50;53.60;;;;;;4931067;29;20060;-69
2022/08/25 09:09:32;;;;;;;4.60;2.50;;;27.60;53.30;;;;;;4910449;29;20047;-69
2022/08/25 09:12:28;;;;;;;3.97;1.80;;;27.80;52.80;;;;;;4928780;29;20663;-69
2022/08/25 09:15:05;;;;;;;3.67;1.80;;;27.90;51.40;;;;;;4926942;29;20036;-69
2022/08/25 09:18:02;;;;;;;6.27;2.47;;;28.10;51.00;;;;;;4924539;29;20043;-69
2022/08/25 09:20:44;;;;;;;5.43;2.03;;;28.20;51.00;;;;;;4934120;29;20051;-69
2022/08/25 09:23:20;;;;;;;4.53;2.30;;;28.40;50.80;;;;;;4932077;29;20135;-69
2022/08/25 09:26:02;;;;;;;5.77;2.17;;;28.50;50.20;;;;;;4935133;29;20043;-69
2022/08/25 09:28:44;;;;;;;5.60;2.27;;;28.60;50.20;;;;;;4927984;29;20048;-69
2022/08/25 09:31:30;;;;;;;3.90;2.03;;;28.70;50.20;;;;;;4930971;29;20131;-69
2022/08/25 09:33:59;;;;;;;4.27;2.07;;;28.70;48.60;;;;;;4945234;28;20051;-69
2022/08/25 09:36:25;;;;;;;6.43;2.50;;;28.80;49.30;;;;;;4931221;29;20059;-69
2022/08/25 09:38:51;;;;;;;4.50;1.90;;;28.90;49.10;;;;;;4915921;29;20062;-69
2022/08/25 09:41:33;;;;;;;3.53;1.90;;;29.00;49.60;;;;;;4915618;29;20127;-69
2022/08/25 09:43:59;;;;;;;5.30;1.67;;;29.10;48.30;;;;;;4917186;29;20139;-69
2022/08/25 09:46:27;;;;;;;2.97;1.90;;;29.20;48.20;;;;;;4931162;29;20134;-69
2022/08/25 09:48:55;;;;;;;2.90;1.47;;;29.30;48.60;;;;;;4925312;29;20040;-69
2022/08/25 09:51:29;;;;;;;2.13;1.20;;;29.40;47.80;;;;;;4934617;29;20047;-69
2022/08/25 09:54:17;;;;;;;4.70;1.77;;;29.50;45.40;;;;;;4921600;29;20091;-69
2022/08/25 09:56:52;;;;;;;2.57;1.30;;;29.50;44.50;;;;;;4916595;29;20469;-69
2022/08/25 09:59:34;;;;;;;2.77;1.50;;;29.60;45.00;;;;;;4932497;29;20054;-69
2022/08/25 10:02:10;;;;;;;3.97;1.40;;;29.70;44.00;;;;;;4934111;29;20162;-69
2022/08/25 10:04:38;;;;;;;3.97;1.13;;;29.80;42.70;;;;;;4918897;29;20464;-69
2022/08/25 10:07:27;;;;;;;3.37;1.30;;;29.90;42.20;;;;;;4894670;29;20055;-69
2022/08/25 10:09:58;;;;;;;3.60;1.13;;;30.00;40.70;;;;;;4929987;29;20052;-69
2022/08/25 10:12:36;;;;;;;2.67;1.20;;;30.00;41.50;;;;;;4924425;29;20079;-69
2022/08/25 10:15:19;;;;;;;2.60;1.27;;;30.00;39.80;;;;;;4911389;29;20072;-69
2022/08/25 10:17:46;;;;;;;2.03;1.33;;;30.10;39.30;;;;;;4916236;29;20039;-69
2022/08/25 10:20:27;;;;;;;2.27;0.90;;;30.20;40.10;;;;;;4926666;29;20400;-69
2022/08/25 10:23:10;;;;;;;4.00;1.00;;;30.20;39.20;;;;;;4912434;29;20582;-69
2022/08/25 10:25:50;;;;;;;5.20;0.90;;;30.20;38.00;;;;;;4937678;29;20093;-69
2022/08/25 10:28:46;;;;;;;2.30;1.10;;;30.30;38.80;;;;;;4925934;29;20055;-69
2022/08/25 10:31:12;;;;;;;2.80;1.00;;;30.40;39.10;;;;;;4910521;29;20052;-69
2022/08/25 10:34:13;;;;;;;2.70;1.00;;;30.50;38.40;;;;;;4923578;29;20044;-69
2022/08/25 10:37:08;;;;;;;3.10;1.33;;;30.60;38.00;;;;;;4933881;29;20047;-69
2022/08/25 10:40:09;;;;;;;3.20;0.80;;;30.60;37.30;;;;;;4941965;28;20529;-69
2022/08/25 10:42:59;;;;;;;4.47;1.20;;;30.70;37.80;;;;;;4927581;29;20039;-69
2022/08/25 10:45:42;;;;;;;6.87;1.37;;;30.80;38.80;;;;;;4938407;29;20056;-69
2022/08/25 10:48:26;;;;;;;6.70;1.40;;;31.00;38.80;;;;;;4925670;29;20051;-69
2022/08/25 10:51:06;;;;;;;4.43;1.80;;;31.10;38.60;;;;;;4926731;29;20071;-69
2022/08/25 10:53:46;;;;;;;4.07;0.90;;;31.20;37.50;;;;;;4916285;29;20048;-69
2022/08/25 10:56:36;;;;;;;3.03;1.40;;;31.20;36.70;;;;;;4930827;29;20051;-69
2022/08/25 10:59:06;;;;;;;3.20;1.10;;;31.20;36.90;;;;;;4910293;29;20046;-69
2022/08/25 11:01:44;;;;;;;6.83;1.50;;;31.20;38.40;;;;;;4908418;29;20086;-69
2022/08/25 11:04:23;;;;;;;5.17;1.27;;;31.30;38.10;;;;;;4936470;29;20079;-69
2022/08/25 11:07:04;;;;;;;5.07;1.03;;;31.30;37.90;;;;;;4930463;29;20329;-69
2022/08/25 11:09:38;;;;;;;4.40;1.23;;;31.40;37.90;;;;;;4905586;29;20058;-69
2022/08/25 11:12:14;;;;;;;3.05;1.00;;;31.50;38.90;;;;;;4924550;29;20127;-69
2022/08/25 11:14:51;;;;;;;4.80;1.20;;;31.60;37.90;;;;;;4910728;29;20058;-69
2022/08/25 11:18:00;;;;;;;3.77;1.20;;;31.60;37.40;;;;;;4932544;29;20043;-69
2022/08/25 11:20:59;;;;;;;2.30;1.07;;;31.70;36.80;;;;;;4928874;29;20051;-69
2022/08/25 11:23:48;;;;;;;2.90;1.30;;;31.80;36.50;;;;;;4928517;29;20591;-69
2022/08/25 11:26:20;;;;;;;2.97;1.10;;;31.80;36.40;;;;;;4909123;29;20444;-69
2022/08/25 11:29:13;;;;;;;5.00;1.40;;;31.80;36.90;;;;;;4916787;29;20484;-69
2022/08/25 11:31:43;;;;;;;2.53;1.33;;;31.80;35.80;;;;;;4928240;29;20429;-69
2022/08/25 11:34:14;;;;;;;2.90;1.30;;;31.90;36.60;;;;;;4928873;29;20039;-69
2022/08/25 11:36:47;;;;;;;4.57;1.20;;;31.90;36.40;;;;;;4930123;29;20090;-69
2022/08/25 11:39:15;;;;;;;3.27;1.57;;;32.00;37.40;;;;;;4930089;29;20070;-69
2022/08/25 11:42:02;;;;;;;4.40;1.20;;;32.10;37.40;;;;;;4913226;29;20062;-69
2022/08/25 11:44:46;;;;;;;3.50;1.48;;;32.10;37.10;;;;;;4928286;29;20471;-69
2022/08/25 11:47:53;;;;;;;2.57;1.10;;;32.20;36.60;;;;;;4928282;29;20043;-69
2022/08/25 11:50:31;;;;;;;1.80;1.10;;;32.20;36.10;;;;;;4892128;29;20532;-69
2022/08/25 11:53:27;;;;;;;4.63;1.42;;;32.20;37.00;;;;;;4903779;29;20390;-69
2022/08/25 11:55:57;;;;;;;2.90;1.40;;;32.20;36.30;;;;;;4920252;29;20170;-69
2022/08/25 11:58:49;;;;;;;4.23;1.40;;;32.20;36.90;;;;;;4927708;29;20050;-69
2022/08/25 12:01:42;;;;;;;4.27;1.40;;;32.30;37.30;;;;;;4927231;29;20051;-69
2022/08/25 12:04:26;;;;;;;3.65;1.45;;;32.50;36.60;;;;;;4935469;29;20044;-69
2022/08/25 12:07:09;;;;;;;4.15;1.45;;;32.50;36.40;;;;;;4931718;29;20055;-69
2022/08/25 12:10:11;;;;;;;4.40;1.60;;;32.60;37.10;;;;;;4910344;29;20031;-69
2022/08/25 12:12:40;;;;;;;1.70;1.20;;;32.70;36.20;;;;;;4912284;29;20351;-69
2022/08/25 12:15:41;;;;;;;1.70;1.10;;;32.70;35.50;;;;;;4914020;29;20078;-69
2022/08/25 12:18:39;;;;;;;3.17;1.45;;;32.80;35.30;;;;;;4926089;29;20040;-69
2022/08/25 12:21:04;;;;;;;2.30;1.27;;;32.80;34.40;;;;;;4924493;29;20055;-69
2022/08/25 12:23:34;;;;;;;5.50;1.35;;;32.90;35.40;;;;;;4913819;29;20056;-69
2022/08/25 12:26:27;;;;;;;2.70;1.30;;;33.00;34.80;;;;;;4910579;29;20741;-69
2022/08/25 12:28:59;;;;;;;4.05;1.02;;;32.90;34.50;;;;;;4931237;29;20047;-69
2022/08/25 12:31:49;;;;;;;2.45;1.30;;;32.90;35.20;;;;;;4929579;29;20086;-69
2022/08/25 12:34:46;;;;;;;3.35;1.63;;;32.90;34.20;;;;;;4932560;29;20131;-69
2022/08/25 12:37:20;;;;;;;1.92;1.23;;;32.90;35.20;;;;;;4916229;29;20048;-69
2022/08/25 12:39:49;;;;;;;2.85;1.35;;;32.90;35.80;;;;;;4929974;29;20047;-69
2022/08/25 12:42:42;;;;;;;1.63;1.20;;;33.00;35.00;;;;;;4929299;29;20154;-69
2022/08/25 12:45:13;;;;;;;3.33;1.67;;;33.10;34.80;;;;;;4943057;28;20131;-69
2022/08/25 12:47:46;;;;;;;4.72;1.70;;;33.20;35.00;;;;;;4930312;29;20402;-69
2022/08/25 12:50:37;;;;;;;3.72;1.40;;;33.20;35.20;;;;;;4913565;29;20048;-69
2022/08/25 12:53:10;;;;;;;3.40;1.75;;;33.20;35.40;;;;;;4911016;29;20111;-69
2022/08/25 12:55:39;;;;;;;4.38;1.75;;;33.30;35.10;;;;;;4929801;29;20055;-69
2022/08/25 12:58:05;;;;;;;2.67;1.30;;;33.40;35.70;;;;;;4911985;29;20624;-69
2022/08/25 13:01:01;;;;;;;1.92;1.30;;;33.40;35.00;;;;;;4912590;29;20032;-69
2022/08/25 13:03:36;;;;;;;3.50;1.23;;;33.40;34.60;;;;;;4910028;29;20040;-69
2022/08/25 13:06:23;;;;;;;3.42;1.35;;;33.40;35.50;;;;;;4912039;29;20051;-69
2022/08/25 13:09:32;;;;;;;1.95;1.23;;;33.50;33.80;;;;;;4912863;29;20044;-69